| time (UTC) | temp F | wind direction | speed MPH | gust MPH | rain 1hr in | rain 24hr in | rain mn in | humidity % | barometer mb |
| 20260901072014 | 65 | 292 | 1.0 | 3.0 | 0.00 | 0.00 | 0.00 | 81 | 21.7 |
| 20260901071014 | 64 | 292 | 0.0 | 1.0 | 0.00 | 0.00 | 0.00 | 83 | 21.7 |
| 20260901070014 | 62 | 270 | 0.0 | 3.0 | 0.00 | 0.00 | 0.00 | 84 | 21.7 |
| 20260901065014 | 61 | 0 | 0.0 | 0.0 | 0.00 | 0.00 | 0.00 | 87 | 21.7 |
| 20260901064014 | 60 | 0 | 0.0 | 0.0 | 0.00 | 0.00 | 0.00 | 88 | 21.7 |
| 20260901063014 | 59 | 0 | 0.0 | 1.0 | 0.00 | 0.00 | 0.00 | 89 | 21.7 |
| 20260901062014 | 58 | 0 | 0.0 | 0.0 | 0.00 | 0.00 | 0.00 | 92 | 21.5 |
| 20260901061014 | 57 | 0 | 0.0 | 0.0 | 0.00 | 0.00 | 0.00 | 93 | 21.4 |
| 20260901060014 | 56 | 0 | 0.0 | 0.0 | 0.00 | 0.00 | 0.00 | 95 | 21.4 |
| 20260901055014 | 55 | 0 | 0.0 | 0.0 | 0.00 | 0.00 | 0.00 | 95 | 21.4 |
| 20260901053014 | 52 | 0 | 0.0 | 0.0 | 0.00 | 0.00 | 0.00 | 96 | 21.3 |
| 20260901052014 | 53 | 0 | 0.0 | 0.0 | 0.00 | 0.00 | 0.00 | 96 | 21.3 |
| 20260901051014 | 53 | 0 | 0.0 | 0.0 | 0.00 | 0.00 | 0.00 | 96 | 21.2 |
| 20260901050014 | 53 | 0 | 0.0 | 0.0 | 0.00 | 0.00 | 0.00 | 96 | 21.2 |
| 20260901045014 | 53 | 0 | 0.0 | 0.0 | 0.00 | 0.00 | 0.00 | 95 | 21.2 |
| 20260901044019 | 53 | 0 | 0.0 | 0.0 | 0.00 | 0.00 | 0.00 | 96 | 21.1 |
| 20260901043014 | 53 | 0 | 0.0 | 0.0 | 0.00 | 0.00 | 0.00 | 96 | 21.2 |
| 20260901042014 | 52 | 0 | 0.0 | 0.0 | 0.00 | 0.00 | 0.00 | 95 | 21.1 |
| 20260901041014 | 53 | 0 | 0.0 | 0.0 | 0.00 | 0.00 | 0.00 | 94 | 21.1 |
| 20260901040014 | 53 | 0 | 0.0 | 0.0 | 0.00 | 0.00 | 0.00 | 95 | 21.2 |
| 20260901034014 | 53 | 0 | 0.0 | 0.0 | 0.00 | 0.00 | 0.00 | 94 | 21.1 |
| 20260901033014 | 53 | 0 | 0.0 | 0.0 | 0.00 | 0.00 | 0.00 | 95 | 21.1 |
| 20260901031014 | 54 | 0 | 0.0 | 0.0 | 0.00 | 0.00 | 0.00 | 94 | 21.3 |
| 20260901030014 | 54 | 0 | 0.0 | 0.0 | 0.00 | 0.00 | 0.00 | 94 | 21.3 |
| 20260901025014 | 54 | 0 | 0.0 | 0.0 | 0.00 | 0.00 | 0.00 | 94 | 21.3 |
| 20260901024014 | 54 | 0 | 0.0 | 0.0 | 0.00 | 0.00 | 0.00 | 93 | 21.2 |
| 20260901023014 | 55 | 0 | 0.0 | 0.0 | 0.00 | 0.00 | 0.00 | 92 | 21.2 |
| 20260901022014 | 55 | 0 | 0.0 | 0.0 | 0.00 | 0.00 | 0.00 | 94 | 21.2 |
| 20260901015014 | 54 | 0 | 0.0 | 0.0 | 0.00 | 0.00 | 0.00 | 93 | 21.2 |
| 20260901014014 | 55 | 0 | 0.0 | 0.0 | 0.00 | 0.00 | 0.00 | 93 | 21.1 |
| 20260901013014 | 55 | 0 | 0.0 | 0.0 | 0.00 | 0.00 | 0.00 | 92 | 21.1 |
| 20260901012014 | 55 | 0 | 0.0 | 0.0 | 0.00 | 0.00 | 0.00 | 91 | 21.2 |
| 20260901011014 | 55 | 0 | 0.0 | 0.0 | 0.00 | 0.00 | 0.00 | 91 | 21.1 |
| 20260901010014 | 55 | 0 | 0.0 | 0.0 | 0.00 | 0.00 | 0.00 | 91 | 21.1 |
| 20260901004014 | 56 | 0 | 0.0 | 0.0 | 0.00 | 0.00 | 0.00 | 90 | 21.2 |
| 20260901003014 | 56 | 0 | 0.0 | 0.0 | 0.00 | 0.00 | 0.00 | 89 | 21.2 |
| 20260901002014 | 57 | 0 | 0.0 | 0.0 | 0.00 | 0.00 | 0.00 | 90 | 21.2 |
| 20260901001014 | 57 | 0 | 0.0 | 0.0 | 0.00 | 0.00 | 0.00 | 89 | 21.1 |
| 20260901000014 | 58 | 0 | 0.0 | 0.0 | 0.00 | 0.00 | 0.00 | 89 | 21.2 |
| 20260831235014 | 57 | 0 | 0.0 | 0.0 | 0.00 | 0.00 | 0.00 | 89 | 21.1 |
| 20260831234014 | 58 | 0 | 0.0 | 0.0 | 0.00 | 0.00 | 0.00 | 87 | 21.1 |
| 20260831233014 | 57 | 0 | 0.0 | 0.0 | 0.00 | 0.00 | 0.00 | 87 | 21.0 |
| 20260831231014 | 60 | 0 | 0.0 | 0.0 | 0.00 | 0.00 | 0.00 | 83 | 20.9 |
| 20260831230014 | 60 | 0 | 0.0 | 0.0 | 0.00 | 0.00 | 0.00 | 83 | 20.9 |
| 20260831225014 | 60 | 0 | 0.0 | 0.0 | 0.00 | 0.00 | 0.00 | 83 | 20.9 |
| 20260831224014 | 60 | 0 | 0.0 | 0.0 | 0.00 | 0.00 | 0.00 | 83 | 21.0 |
| 20260831223014 | 61 | 0 | 0.0 | 0.0 | 0.00 | 0.00 | 0.00 | 82 | 21.0 |
| 20260831222015 | 62 | 0 | 0.0 | 0.0 | 0.00 | 0.00 | 0.00 | 78 | 21.0 |
| 20260831221014 | 63 | 0 | 0.0 | 0.0 | 0.00 | 0.00 | 0.00 | 77 | 21.0 |
| 20260831220014 | 63 | 0 | 0.0 | 0.0 | 0.00 | 0.00 | 0.00 | 76 | 21.0 |
| 20260831215014 | 63 | 0 | 0.0 | 0.0 | 0.00 | 0.00 | 0.00 | 77 | 21.0 |
| 20260831214014 | 63 | 0 | 0.0 | 0.0 | 0.00 | 0.00 | 0.00 | 78 | 20.9 |
| 20260831213017 | 62 | 0 | 0.0 | 0.0 | 0.00 | 0.00 | 0.00 | 77 | 20.9 |
| 20260831210014 | 64 | 0 | 0.0 | 0.0 | 0.00 | 0.00 | 0.00 | 73 | 21.0 |
| 20260831205013 | 66 | 270 | 0.0 | 1.0 | 0.00 | 0.00 | 0.00 | 71 | 20.9 |
| 20260831204013 | 65 | 0 | 0.0 | 0.0 | 0.00 | 0.00 | 0.00 | 71 | 20.9 |
| 20260831203014 | 66 | 270 | 0.0 | 1.0 | 0.00 | 0.00 | 0.00 | 70 | 20.7 |
| 20260831202013 | 66 | 0 | 0.0 | 0.0 | 0.00 | 0.00 | 0.00 | 71 | 20.7 |
| 20260831201013 | 67 | 0 | 0.0 | 0.0 | 0.00 | 0.00 | 0.00 | 69 | 20.7 |
| 20260831200014 | 67 | 0 | 0.0 | 0.0 | 0.00 | 0.00 | 0.00 | 68 | 20.5 |
| 20260831195013 | 67 | 0 | 0.0 | 0.0 | 0.00 | 0.00 | 0.00 | 67 | 20.5 |
| 20260831194013 | 67 | 0 | 0.0 | 0.0 | 0.00 | 0.00 | 0.00 | 67 | 20.3 |
| 20260831193014 | 68 | 0 | 0.0 | 0.0 | 0.00 | 0.00 | 0.00 | 65 | 20.2 |
| 20260831192014 | 69 | 0 | 0.0 | 0.0 | 0.00 | 0.00 | 0.00 | 62 | 20.0 |
| 20260831191013 | 70 | 0 | 0.0 | 0.0 | 0.00 | 0.00 | 0.00 | 59 | 20.0 |
| 20260831190014 | 70 | 270 | 1.0 | 3.0 | 0.00 | 0.00 | 0.00 | 59 | 19.9 |
| 20260831185013 | 69 | 270 | 1.0 | 4.0 | 0.00 | 0.00 | 0.00 | 61 | 19.7 |
| 20260831184014 | 69 | 0 | 0.0 | 0.0 | 0.00 | 0.00 | 0.00 | 61 | 19.6 |
| 20260831183013 | 70 | 0 | 0.0 | 0.0 | 0.00 | 0.00 | 0.00 | 58 | 19.4 |
| 20260831182013 | 73 | 0 | 0.0 | 0.0 | 0.00 | 0.00 | 0.00 | 54 | 19.4 |
| 20260831181013 | 74 | 247 | 0.0 | 3.0 | 0.00 | 0.00 | 0.00 | 51 | 19.3 |
| 20260831180020 | 75 | 225 | 2.0 | 5.0 | 0.00 | 0.00 | 0.00 | 50 | 19.2 |
| 20260831175013 | 75 | 225 | 1.0 | 4.0 | 0.00 | 0.00 | 0.00 | 49 | 19.2 |
| 20260831174013 | 76 | 247 | 4.0 | 10.0 | 0.00 | 0.00 | 0.00 | 47 | 19.1 |
| 20260831173013 | 76 | 247 | 3.0 | 8.0 | 0.00 | 0.00 | 0.00 | 47 | 19.1 |
| 20260831171013 | 77 | 247 | 5.0 | 9.0 | 0.00 | 0.00 | 0.00 | 45 | 19.0 |
| 20260831170016 | 78 | 225 | 6.0 | 12.0 | 0.00 | 0.00 | 0.00 | 45 | 19.1 |
| 20260831165013 | 78 | 247 | 5.0 | 16.0 | 0.00 | 0.00 | 0.00 | 45 | 19.1 |
| 20260831164013 | 78 | 225 | 7.0 | 13.0 | 0.00 | 0.00 | 0.00 | 44 | 19.1 |
| 20260831163015 | 78 | 225 | 7.0 | 13.0 | 0.00 | 0.00 | 0.00 | 44 | 19.1 |
| 20260831161013 | 79 | 225 | 5.0 | 10.0 | 0.00 | 0.00 | 0.00 | 46 | 19.0 |
| 20260831160014 | 78 | 225 | 7.0 | 12.0 | 0.00 | 0.00 | 0.00 | 45 | 19.1 |
| 20260831155013 | 79 | 225 | 6.0 | 12.0 | 0.00 | 0.00 | 0.00 | 46 | 19.1 |
| 20260831154013 | 79 | 225 | 7.0 | 17.0 | 0.00 | 0.00 | 0.00 | 46 | 19.2 |
| 20260831153013 | 79 | 225 | 8.0 | 16.0 | 0.00 | 0.00 | 0.00 | 45 | 19.2 |
| 20260831151015 | 79 | 225 | 6.0 | 13.0 | 0.00 | 0.00 | 0.00 | 47 | 19.2 |
| 20260831150014 | 79 | 225 | 9.0 | 16.0 | 0.00 | 0.00 | 0.00 | 47 | 19.2 |
| 20260831145017 | 79 | 225 | 7.0 | 11.0 | 0.00 | 0.00 | 0.00 | 47 | 19.2 |
| 20260831144013 | 79 | 225 | 9.0 | 18.0 | 0.00 | 0.00 | 0.00 | 48 | 19.2 |
| 20260831143013 | 78 | 225 | 11.0 | 19.0 | 0.00 | 0.00 | 0.00 | 48 | 19.2 |
| 20260831142013 | 80 | 225 | 8.0 | 16.0 | 0.00 | 0.00 | 0.00 | 48 | 19.3 |
| 20260831141013 | 79 | 225 | 6.0 | 13.0 | 0.00 | 0.00 | 0.00 | 49 | 19.2 |
| 20260831140014 | 79 | 225 | 8.0 | 13.0 | 0.00 | 0.00 | 0.00 | 48 | 19.3 |
| 20260831135013 | 77 | 225 | 7.0 | 15.0 | 0.00 | 0.00 | 0.00 | 50 | 19.3 |
| 20260831134013 | 78 | 225 | 9.0 | 15.0 | 0.00 | 0.00 | 0.00 | 49 | 19.3 |
| 20260831133013 | 78 | 225 | 7.0 | 13.0 | 0.00 | 0.00 | 0.00 | 49 | 19.3 |
| 20260831132013 | 79 | 225 | 6.0 | 13.0 | 0.00 | 0.00 | 0.00 | 48 | 19.4 |
| 20260831131013 | 78 | 247 | 10.0 | 18.0 | 0.00 | 0.00 | 0.00 | 47 | 19.4 |
| 20260831130023 | 78 | 247 | 6.0 | 14.0 | 0.00 | 0.00 | 0.00 | 50 | 19.4 |
| 20260831125013 | 77 | 225 | 7.0 | 17.0 | 0.00 | 0.00 | 0.00 | 51 | 19.5 |
| 20260831124017 | 79 | 225 | 6.0 | 11.0 | 0.00 | 0.00 | 0.00 | 54 | 19.5 |
| 20260831123014 | 77 | 247 | 9.0 | 18.0 | 0.00 | 0.00 | 0.00 | 55 | 19.5 |
| 20260831122014 | 74 | 270 | 6.0 | 12.0 | 0.00 | 0.00 | 0.00 | 58 | 19.6 |
| 20260831121013 | 74 | 225 | 8.0 | 13.0 | 0.00 | 0.00 | 0.00 | 58 | 19.6 |
| 20260831120014 | 75 | 225 | 5.0 | 10.0 | 0.00 | 0.00 | 0.00 | 58 | 19.6 |
| 20260831114013 | 74 | 225 | 8.0 | 14.0 | 0.00 | 0.00 | 0.00 | 59 | 19.7 |
| 20260831113013 | 75 | 247 | 6.0 | 14.0 | 0.00 | 0.00 | 0.00 | 57 | 19.7 |
| 20260831112013 | 75 | 225 | 7.0 | 15.0 | 0.00 | 0.00 | 0.00 | 56 | 19.8 |
| 20260831110014 | 75 | 225 | 5.0 | 16.0 | 0.00 | 0.00 | 0.00 | 58 | 19.8 |
| 20260831105013 | 75 | 225 | 6.0 | 15.0 | 0.00 | 0.00 | 0.00 | 58 | 19.8 |
| 20260831103013 | 71 | 225 | 6.0 | 13.0 | 0.00 | 0.00 | 0.00 | 64 | 20.0 |
| 20260831102013 | 72 | 270 | 7.0 | 16.0 | 0.00 | 0.00 | 0.00 | 63 | 20.1 |
| 20260831101013 | 72 | 247 | 7.0 | 12.0 | 0.00 | 0.00 | 0.00 | 65 | 20.1 |
| 20260831100014 | 72 | 247 | 5.0 | 9.0 | 0.00 | 0.00 | 0.00 | 65 | 20.0 |
| 20260831094013 | 71 | 225 | 3.0 | 8.0 | 0.00 | 0.00 | 0.00 | 67 | 20.2 |
| 20260831093013 | 71 | 247 | 4.0 | 8.0 | 0.00 | 0.00 | 0.00 | 67 | 20.2 |
| 20260831092013 | 70 | 225 | 6.0 | 12.0 | 0.00 | 0.00 | 0.00 | 66 | 20.1 |
| 20260831091013 | 71 | 225 | 5.0 | 9.0 | 0.00 | 0.00 | 0.00 | 66 | 20.0 |
| 20260831090013 | 71 | 225 | 5.0 | 10.0 | 0.00 | 0.00 | 0.00 | 66 | 20.0 |
| 20260831085013 | 71 | 225 | 2.0 | 8.0 | 0.00 | 0.00 | 0.00 | 67 | 19.9 |
| 20260831083013 | 72 | 180 | 2.0 | 9.0 | 0.00 | 0.00 | 0.00 | 64 | 19.7 |
| 20260831082013 | 71 | 180 | 2.0 | 6.0 | 0.00 | 0.00 | 0.00 | 64 | 19.6 |
| 20260831075013 | 68 | 225 | 6.0 | 10.0 | 0.00 | 0.00 | 0.00 | 71 | 19.5 |
| 20260831074013 | 67 | 225 | 5.0 | 11.0 | 0.00 | 0.00 | 0.00 | 75 | 19.5 |
| 20260831073013 | 67 | 202 | 3.0 | 7.0 | 0.00 | 0.00 | 0.00 | 75 | 19.5 |